Data for 04/27/2009

Time Sea-Level Adjusted Pressure Absolute Pressure Temperature Relative Humidity Dew Point   
(mb) (inHg) (mb) (inHg) (C) (F) (%) (C) (F)
00:05 1019 30.09 848 25.04 0.7 33.2 86 -1.3 29.6
00:10 1019 30.09 848 25.04 0.7 33.2 85 -1.5 29.3
00:15 1019 30.09 848 25.04 0.7 33.3 82 -2 28.5
00:20 1019 30.09 848 25.04 0.8 33.4 82 -1.9 28.5
00:25 1019 30.09 848 25.04 0.6 33.1 84 -1.8 28.8
00:30 1019 30.09 848 25.04 0.2 32.4 86 -1.8 28.7
00:35 1019 30.09 848 25.04 0 32 86 -2 28.3
00:40 1019 30.09 848 25.04 0.1 32.1 89 -1.6 29.2
00:45 1019 30.09 848 25.04 -0 32 88 -1.7 28.9
00:50 1019 30.09 848 25.04 -0 32 87 -2 28.4
00:55 1019 30.09 848 25.04 0.1 32.1 87 -1.9 28.6
01:00 1019 30.09 848 25.04 0.1 32.1 87 -1.8 28.7
01:05 1019 30.09 848 25.04 0 32.1 87 -1.9 28.5
01:10 1019 30.09 848 25.04 0 32.1 86 -2.1 28.3
01:15 1019 30.09 848 25.04 0 32.1 86 -2 28.5
01:20 1019 30.09 848 25.04 0 32.1 87 -1.9 28.5
01:25 1019 30.09 848 25.04 0 32.1 87 -1.9 28.6
01:30 1019 30.09 848 25.04 -0 32 88 -1.8 28.7
01:35 1018 30.06 848 25.04 -0.1 31.9 88 -1.8 28.7
01:40 1018 30.06 848 25.04 -0.1 31.8 89 -1.7 28.9
01:45 1018 30.06 848 25.04 -0.2 31.7 89 -1.7 28.9
01:50 1018 30.06 848 25.04 -0.2 31.7 90 -1.6 29.1
01:55 1018 30.06 848 25.04 -0.2 31.7 90 -1.6 29.1
02:00 1018 30.06 848 25.04 -0.1 31.8 89 -1.8 28.8
02:05 1018 30.06 848 25.04 0.1 32.2 86 -2 28.5
02:10 1018 30.06 847 25.01 0.3 32.5 85 -1.9 28.6
02:15 1018 30.06 847 25.01 0.3 32.6 85 -1.9 28.6
02:20 1018 30.06 847 25.01 0.3 32.5 85 -2 28.4
02:25 1018 30.06 847 25.01 0.3 32.6 85 -1.9 28.6
02:30 1018 30.06 847 25.01 0.3 32.5 85 -2 28.4
02:35 1018 30.06 847 25.01 0.3 32.6 83 -2.2 28.1
02:40 1018 30.06 847 25.01 0.4 32.7 82 -2.2 28
02:45 1018 30.06 847 25.01 0.4 32.8 83 -2.2 28
02:50 1018 30.06 847 25.01 0.4 32.7 83 -2.2 28.1
02:55 1018 30.06 847 25.01 0.3 32.6 84 -2.2 28.1
03:00 1018 30.06 847 25.01 0.3 32.5 83 -2.2 28
03:05 1018 30.06 847 25.01 0.3 32.5 83 -2.3 27.9
03:10 1018 30.06 847 25.01 0.2 32.4 83 -2.2 28
03:15 1018 30.06 847 25.01 0.2 32.4 83 -2.3 27.9
03:20 1018 30.06 847 25.01 0.1 32.2 84 -2.3 27.8
03:25 1018 30.06 847 25.01 0.1 32.2 84 -2.3 27.8
03:30 1018 30.06 847 25.01 0 32 85 -2.2 28
03:35 1018 30.06 847 25.01 -0.1 31.8 85 -2.4 27.7
03:40 1018 30.06 847 25.01 -0.1 31.8 84 -2.4 27.6
03:45 1018 30.06 847 25.01 -0 31.9 83 -2.5 27.4
03:50 1018 30.06 847 25.01 0 32 83 -2.6 27.3
03:55 1018 30.06 847 25.01 0.1 32.1 82 -2.6 27.4
04:00 1018 30.06 847 25.01 0.1 32.1 82 -2.6 27.2
04:05 1018 30.06 847 25.01 0 32.1 83 -2.6 27.3
04:10 1018 30.06 847 25.01 0 32 82 -2.7 27.2
04:15 1018 30.06 847 25.01 -0.1 31.9 83 -2.6 27.2
04:20 1018 30.06 847 25.01 -0.2 31.7 84 -2.6 27.3
04:25 1018 30.06 847 25.01 -0.3 31.5 83 -2.7 27.1
04:30 1018 30.06 847 25.01 -0.3 31.5 83 -2.8 27
04:35 1018 30.06 847 25.01 -0.3 31.4 84 -2.8 27
04:40 1018 30.06 847 25.01 -0.3 31.4 83 -2.9 26.7
04:45 1018 30.06 847 25.01 -0.4 31.4 83 -2.9 26.8
04:50 1017 30.03 847 25.01 -0.4 31.3 83 -3 26.6
04:55 1017 30.03 847 25.01 -0.3 31.5 82 -2.9 26.7
05:00 1017 30.03 847 25.01 -0.4 31.3 83 -2.9 26.7
05:05 1017 30.03 847 25.01 -0.4 31.2 83 -3 26.6
05:10 1017 30.03 847 25.01 -0.4 31.2 83 -3 26.6
05:15 1017 30.03 847 25.01 -0.5 31.2 83 -3 26.7
05:20 1017 30.03 847 25.01 -0.5 31.1 83 -3.1 26.4
05:25 1017 30.03 847 25.01 -0.5 31.1 83 -3 26.6
05:30 1017 30.03 847 25.01 -0.5 31 83 -3 26.5
05:35 1017 30.03 847 25.01 -0.6 31 84 -3 26.6
05:40 1017 30.03 847 25.01 -0.6 31 83 -3.1 26.5
05:45 1017 30.03 847 25.01 -0.5 31 83 -3 26.6
05:50 1017 30.03 847 25.01 -0.6 31 84 -2.9 26.7
05:55 1017 30.03 847 25.01 -0.5 31.1 84 -2.9 26.8
06:00 1017 30.03 847 25.01 -0.5 31.1 84 -2.9 26.8
06:05 1017 30.03 847 25.01 -0.6 31 85 -2.8 27
06:10 1017 30.03 847 25.01 -0.6 30.9 85 -2.8 27
06:15 1017 30.03 847 25.01 -0.6 30.9 86 -2.7 27.1
06:20 1017 30.03 847 25.01 -0.6 31 86 -2.6 27.3
06:25 1018 30.06 847 25.01 -0.6 31 87 -2.5 27.4
06:30 1018 30.06 847 25.01 -0.6 30.9 87 -2.5 27.5
06:35 1018 30.06 847 25.01 -0.6 30.9 88 -2.4 27.6
06:40 1018 30.06 847 25.01 -0.7 30.8 88 -2.4 27.7
06:45 1018 30.06 847 25.01 -0.7 30.7 89 -2.3 27.8
06:50 1018 30.06 847 25.01 -0.8 30.6 89 -2.4 27.7
06:55 1018 30.06 847 25.01 -0.7 30.7 89 -2.4 27.7
07:00 1018 30.06 847 25.01 -0.7 30.8 88 -2.4 27.7
07:05 1018 30.06 847 25.01 -0.7 30.7 81 -3.5 25.7
07:10 1018 30.06 847 25.01 -1.4 29.5 84 -3.8 25.1
07:15 1018 30.06 847 25.01 -1.3 29.6 82 -4 24.8
07:20 1018 30.06 847 25.01 -1.1 29.9 81 -4 24.8
07:25 1018 30.06 847 25.01 -0.9 30.3 78 -4.2 24.4
07:30 1018 30.06 847 25.01 -0.9 30.4 78 -4.3 24.3
07:35 1018 30.06 847 25.01 -0.6 30.9 77 -4.1 24.5
07:40 1018 30.06 847 25.01 -0.2 31.6 76 -4 24.8
07:45 1018 30.06 847 25.01 0.1 32.2 73 -4.2 24.4
07:50 1018 30.06 847 25.01 0.3 32.5 73 -4 24.8
07:55 1018 30.06 847 25.01 0.4 32.7 71 -4.3 24.3
08:00 1018 30.06 847 25.01 0.4 32.8 72 -4.1 24.7
08:05 1018 30.06 847 25.01 0.5 32.9 72 -3.9 25
08:10 1018 30.06 847 25.01 0.5 32.9 73 -3.7 25.4
08:15 1018 30.06 847 25.01 0.7 33.2 74 -3.5 25.7
08:20 1018 30.06 847 25.01 0.8 33.5 73 -3.4 25.9
08:25 1018 30.06 847 25.01 0.9 33.6 74 -3.2 26.2
08:30 1018 30.06 847 25.01 1.5 34.7 70 -3.5 25.7
08:35 1018 30.06 847 25.01 2 35.7 70 -2.8 27
08:40 1018 30.06 847 25.01 2.6 36.7 66 -3 26.6
08:45 1018 30.06 847 25.01 2.5 36.6 68 -2.7 27.1
08:50 1018 30.06 847 25.01 2.2 35.9 70 -2.7 27.2
08:55 1018 30.06 847 25.01 2.3 36.2 69 -2.7 27.2
09:00 1018 30.06 847 25.01 2.5 36.5 69 -2.6 27.4
09:05 1018 30.06 847 25.01 2.3 36.1 71 -2.4 27.6
09:10 1018 30.06 847 25.01 2.4 36.2 71 -2.3 27.8
09:15 1018 30.06 847 25.01 2.3 36.1 71 -2.4 27.7
09:20 1017 30.03 847 25.01 2.3 36.2 70 -2.5 27.4
09:25 1017 30.03 847 25.01 2.1 35.8 73 -2.3 27.9
09:30 1017 30.03 847 25.01 1.9 35.4 72 -2.7 27.1
09:35 1017 30.03 846 24.98 2.1 35.7 72 -2.5 27.5
09:40 1017 30.03 846 24.98 2.3 36.1 72 -2.2 28
09:45 1017 30.03 846 24.98 2.2 36 70 -2.6 27.2
09:50 1017 30.03 846 24.98 2.4 36.4 70 -2.5 27.5
09:55 1017 30.03 846 24.98 2.6 36.6 71 -2.2 28
10:00 1017 30.03 846 24.98 3 37.3 69 -2.2 28.1
10:05 1017 30.03 846 24.98 3 37.3 67 -2.5 27.6
10:10 1017 30.03 846 24.98 2.9 37.3 71 -1.9 28.6
10:15 1017 30.03 846 24.98 3.2 37.8 67 -2.3 27.9
10:20 1017 30.03 846 24.98 3.2 37.8 69 -1.9 28.5
10:25 1017 30.03 846 24.98 3.5 38.4 65 -2.5 27.5
10:30 1017 30.03 846 24.98 3.4 38.2 67 -2.2 28.1
10:35 1017 30.03 846 24.98 3.5 38.3 65 -2.6 27.4
10:40 1017 30.03 846 24.98 3.5 38.3 65 -2.4 27.6
10:45 1017 30.03 846 24.98 4 39.2 65 -1.9 28.6
10:50 1017 30.03 846 24.98 4 39.2 63 -2.5 27.6
10:55 1017 30.03 846 24.98 4.1 39.4 65 -2 28.5
11:00 1017 30.03 846 24.98 4 39.1 66 -1.8 28.7
11:05 1017 30.03 846 24.98 4.3 39.8 67 -1.4 29.5
11:10 1017 30.03 846 24.98 5.1 41.1 63 -1.4 29.4
11:15 1017 30.03 846 24.98 5.4 41.7 61 -1.4 29.5
11:20 1017 30.03 846 24.98 5.1 41.1 62 -1.6 29.1
11:25 1017 30.03 846 24.98 4.9 40.8 64 -1.4 29.5
11:30 1017 30.03 846 24.98 4.9 40.9 65 -1.2 29.8
11:35 1016 30 846 24.98 4.6 40.2 66 -1.2 29.8
11:40 1016 30 846 24.98 4.8 40.6 65 -1.2 29.9
11:45 1016 30 846 24.98 4.8 40.6 65 -1.2 29.9
11:50 1016 30 845 24.95 4.7 40.5 63 -1.8 28.7
11:55 1016 30 845 24.95 5.1 41.1 63 -1.4 29.5
12:00 1016 30 845 24.95 5.3 41.5 62 -1.4 29.5
12:05 1016 30 845 24.95 5.7 42.2 64 -0.7 30.8
12:10 1016 30 845 24.95 5.3 41.5 59 -2.1 28.2
12:15 1016 30 845 24.95 5.2 41.4 62 -1.4 29.4
12:20 1016 30 845 24.95 5.3 41.6 64 -0.9 30.4
12:25 1016 30 845 24.95 5.4 41.8 63 -1 30.1
12:30 1016 30 845 24.95 5.8 42.4 63 -0.7 30.8
12:35 1016 30 845 24.95 6 42.8 59 -1.3 29.6
12:40 1016 30 845 24.95 5.6 42.1 61 -1.3 29.6
12:45 1016 30 845 24.95 5.3 41.5 65 -0.7 30.7
12:50 1016 30 845 24.95 5.2 41.4 64 -0.9 30.4
12:55 1016 30 845 24.95 5.1 41.1 63 -1.3 29.6
13:00 1016 30 845 24.95 5.2 41.4 62 -1.5 29.3
13:05 1016 30 845 24.95 5 41 63 -1.3 29.6
13:10 1015 29.97 845 24.95 5.2 41.4 63 -1.1 30
13:15 1015 29.97 845 24.95 5.2 41.4 67 -0.4 31.2
13:20 1015 29.97 845 24.95 5.4 41.7 65 -0.6 31
13:25 1015 29.97 845 24.95 5.3 41.6 65 -0.8 30.6
13:30 1015 29.97 845 24.95 5.5 41.9 65 -0.6 30.9
13:35 1015 29.97 845 24.95 5.6 42.1 65 -0.4 31.3
13:40 1015 29.97 844 24.92 5.6 42.1 66 -0.3 31.5
13:45 1015 29.97 844 24.92 6.1 42.9 65 0 32.1
13:50 1015 29.97 844 24.92 6.2 43.1 63 -0.4 31.3
13:55 1015 29.97 844 24.92 6.2 43.1 62 -0.5 31.1
14:00 1015 29.97 844 24.92 6 42.9 63 -0.5 31.1
14:05 1015 29.97 844 24.92 5.8 42.4 62 -0.9 30.5
14:10 1015 29.97 844 24.92 6.1 43 61 -0.8 30.6
14:15 1015 29.97 844 24.92 5.6 42.1 67 -0.1 31.8
14:20 1015 29.97 844 24.92 6.1 42.9 66 0.2 32.3
14:25 1015 29.97 844 24.92 5.8 42.4 65 -0.2 31.6
14:30 1015 29.97 844 24.92 5.9 42.7 60 -1.1 30
14:35 1015 29.97 844 24.92 6.2 43.1 60 -0.9 30.3
14:40 1015 29.97 844 24.92 6.4 43.6 59 -0.9 30.3
14:45 1015 29.97 844 24.92 6.6 43.8 61 -0.5 31.2
14:50 1015 29.97 844 24.92 6.7 44 59 -0.8 30.5
14:55 1015 29.97 844 24.92 6.3 43.4 63 -0.2 31.6
15:00 1015 29.97 844 24.92 6.9 44.4 59 -0.5 31.1
15:05 1015 29.97 844 24.92 7 44.6 60 -0.3 31.5
15:10 1015 29.97 844 24.92 7.2 44.9 58 -0.5 31.1
15:15 1015 29.97 844 24.92 7.1 44.7 59 -0.3 31.4
15:20 1015 29.97 844 24.92 6.9 44.3 59 -0.5 31
15:25 1015 29.97 844 24.92 7.1 44.8 56 -1.1 29.9
15:30 1015 29.97 844 24.92 6.9 44.5 57 -1 30.2
15:35 1015 29.97 844 24.92 6.6 43.9 59 -0.9 30.4
15:40 1015 29.97 844 24.92 7.1 44.7 57 -0.8 30.6
15:45 1014 29.94 844 24.92 6.8 44.2 61 -0.3 31.5
15:50 1015 29.97 844 24.92 6.7 44.1 60 -0.4 31.3
15:55 1015 29.97 844 24.92 7.1 44.8 57 -0.9 30.5
16:00 1014 29.94 844 24.92 7.1 44.7 57 -0.8 30.5
16:05 1014 29.94 844 24.92 6.8 44.2 60 -0.5 31.1
16:10 1014 29.94 844 24.92 6.8 44.2 60 -0.4 31.3
16:15 1014 29.94 844 24.92 7.2 44.9 56 -1 30.1
16:20 1014 29.94 843 24.89 7.2 44.9 58 -0.4 31.3
16:25 1014 29.94 843 24.89 6.9 44.5 57 -1.1 30
16:30 1014 29.94 844 24.92 6.5 43.8 57 -1.4 29.5
16:35 1014 29.94 844 24.92 6.7 44 57 -1.2 29.8
16:40 1014 29.94 844 24.92 6.5 43.7 56 -1.7 28.9
16:45 1014 29.94 844 24.92 6.6 43.8 55 -1.7 28.9
16:50 1014 29.94 843 24.89 6.8 44.2 56 -1.4 29.5
16:55 1014 29.94 843 24.89 6.7 44 55 -1.6 29.1
17:00 1014 29.94 843 24.89 6.7 44.1 57 -1.2 29.8
17:05 1014 29.94 843 24.89 6.8 44.2 58 -0.9 30.3
17:10 1014 29.94 843 24.89 6.7 44.1 61 -0.3 31.5
17:15 1014 29.94 843 24.89 6.4 43.6 61 -0.6 31
17:20 1014 29.94 843 24.89 6.3 43.3 60 -0.8 30.5
17:25 1014 29.94 843 24.89 6.3 43.3 62 -0.4 31.4
17:30 1014 29.94 843 24.89 6 42.8 62 -0.6 30.8
17:35 1014 29.94 843 24.89 6 42.9 62 -0.8 30.6
17:40 1014 29.94 843 24.89 6.3 43.4 59 -1.1 30.1
17:45 1014 29.94 843 24.89 6.5 43.7 58 -1 30.1
17:50 1014 29.94 843 24.89 6.8 44.2 58 -0.8 30.6
17:55 1014 29.94 843 24.89 6.6 43.8 60 -0.7 30.8
18:00 1014 29.94 843 24.89 6.4 43.5 59 -1 30.2
18:05 1014 29.94 843 24.89 6.1 42.9 60 -1 30.1
18:10 1014 29.94 843 24.89 6 42.9 61 -0.9 30.4
18:15 1014 29.94 844 24.92 5.9 42.6 62 -0.9 30.4
18:20 1014 29.94 844 24.92 5.9 42.6 62 -0.9 30.3
18:25 1014 29.94 844 24.92 5.7 42.3 62 -0.9 30.5
18:30 1014 29.94 844 24.92 5.8 42.4 62 -0.9 30.4
18:35 1014 29.94 844 24.92 5.6 42.2 63 -0.8 30.6
18:40 1014 29.94 844 24.92 5.7 42.2 63 -0.8 30.5
18:45 1014 29.94 843 24.89 5.6 42.1 62 -1 30.2
18:50 1014 29.94 843 24.89 5.6 42.1 63 -0.8 30.6
18:55 1014 29.94 843 24.89 5.5 41.9 65 -0.6 30.9
19:00 1014 29.94 843 24.89 5.4 41.7 67 -0.3 31.5
19:05 1014 29.94 843 24.89 5.3 41.6 67 -0.4 31.3
19:10 1014 29.94 843 24.89 5.2 41.4 68 -0.2 31.6
19:15 1014 29.94 843 24.89 5.2 41.4 70 0.2 32.3
19:20 1014 29.94 843 24.89 5.1 41.2 70 0.1 32.1
19:25 1014 29.94 843 24.89 5.1 41.1 70 0.1 32.1
19:30 1014 29.94 843 24.89 5 41 71 0.2 32.3
19:35 1014 29.94 843 24.89 4.9 40.9 71 0 32
19:40 1014 29.94 844 24.92 4.8 40.7 72 0.2 32.4
19:45 1014 29.94 843 24.89 4.8 40.6 72 0.1 32.3
19:50 1014 29.94 843 24.89 4.8 40.7 72 0.2 32.3
19:55 1014 29.94 843 24.89 4.8 40.7 74 0.5 32.9
20:00 1014 29.94 843 24.89 4.7 40.5 74 0.5 32.9
20:05 1014 29.94 843 24.89 4.7 40.4 75 0.7 33.2
20:10 1014 29.94 843 24.89 4.6 40.2 76 0.8 33.4
20:15 1014 29.94 843 24.89 4.5 40.1 76 0.6 33.1
20:20 1014 29.94 843 24.89 4.5 40 75 0.4 32.7
20:25 1014 29.94 843 24.89 4.4 40 75 0.3 32.6
20:30 1014 29.94 843 24.89 4.4 39.9 76 0.5 32.9
20:35 1014 29.94 843 24.89 4.3 39.7 77 0.5 33
20:40 1014 29.94 843 24.89 4.2 39.5 77 0.5 32.9
20:45 1014 29.94 844 24.92 4.1 39.4 77 0.5 33
20:50 1014 29.94 843 24.89 4.1 39.4 77 0.5 32.9
20:55 1014 29.94 843 24.89 4.1 39.4 77 0.4 32.7
21:00 1014 29.94 844 24.92 4.1 39.4 76 0.3 32.6
21:05 1014 29.94 844 24.92 4.1 39.4 77 0.4 32.7
21:10 1014 29.94 844 24.92 4.1 39.4 78 0.6 33
21:15 1014 29.94 844 24.92 4.1 39.3 77 0.4 32.7
21:20 1014 29.94 844 24.92 4.1 39.4 77 0.5 32.8
21:25 1015 29.97 844 24.92 4.1 39.4 76 0.4 32.7
21:30 1015 29.97 844 24.92 4.1 39.4 77 0.4 32.7
21:35 1015 29.97 844 24.92 4.2 39.5 76 0.3 32.5
21:40 1015 29.97 844 24.92 4.1 39.4 76 0.3 32.6
21:45 1015 29.97 844 24.92 4.1 39.4 76 0.3 32.6
21:50 1015 29.97 844 24.92 4.1 39.4 76 0.3 32.5
21:55 1015 29.97 844 24.92 4.1 39.4 76 0.3 32.6
22:00 1015 29.97 844 24.92 4.1 39.3 77 0.3 32.6
22:05 1015 29.97 844 24.92 4.1 39.3 76 0.2 32.4
22:10 1015 29.97 844 24.92 4.1 39.4 77 0.4 32.7
22:15 1015 29.97 844 24.92 4 39.2 77 0.4 32.7
22:20 1015 29.97 844 24.92 4 39.2 78 0.4 32.8
22:25 1015 29.97 844 24.92 4 39.3 73 -0.4 31.3
22:30 1015 29.97 844 24.92 4 39.2 73 -0.4 31.3
22:35 1015 29.97 844 24.92 4 39.1 74 -0.3 31.4
22:40 1015 29.97 844 24.92 3.9 39 74 -0.3 31.4
22:45 1015 29.97 844 24.92 3.8 38.9 75 -0.3 31.5
22:50 1015 29.97 844 24.92 3.7 38.7 75 -0.3 31.5
22:55 1015 29.97 844 24.92 3.6 38.6 75 -0.4 31.4
23:00 1015 29.97 844 24.92 3.7 38.6 76 -0.2 31.6
23:05 1015 29.97 844 24.92 3.7 38.6 77 0 32.1
23:10 1015 29.97 844 24.92 3.6 38.6 78 0.2 32.3
23:15 1015 29.97 844 24.92 3.6 38.5 79 0.2 32.4
23:20 1015 29.97 844 24.92 3.5 38.3 79 0.2 32.4
23:25 1015 29.97 844 24.92 3.4 38.2 80 0.2 32.4
23:30 1015 29.97 844 24.92 3.4 38.1 80 0.2 32.4
23:35 1014 29.94 844 24.92 3.3 37.9 81 0.4 32.7
23:40 1014 29.94 844 24.92 3.2 37.8 82 0.4 32.7
23:45 1015 29.97 844 24.92 3.2 37.8 82 0.4 32.6
23:50 1014 29.94 844 24.92 3.2 37.7 82 0.4 32.7
23:55 1014 29.94 844 24.92 3.1 37.6 82 0.4 32.7
24:00 1014 29.94 844 24.92 3.1 37.6 82 0.4 32.7